createdAt,value
2023-03-06T00:01:18.794Z,1.98
2023-03-06T00:03:52.366Z,3.67
2023-03-06T00:06:31.476Z,2.13
2023-03-06T00:09:01.689Z,1.90
2023-03-06T00:11:31.916Z,2.47
2023-03-06T00:14:03.784Z,3.00
2023-03-06T00:16:34.107Z,3.47
2023-03-06T00:19:06.552Z,2.95
2023-03-06T00:21:36.931Z,3.17
2023-03-06T00:24:20.506Z,3.72
2023-03-06T00:26:51.102Z,2.55
2023-03-06T00:29:23.533Z,2.67
2023-03-06T00:32:01.873Z,2.85
2023-03-06T00:34:34.674Z,3.10
2023-03-06T00:37:04.966Z,3.25
2023-03-06T00:39:35.110Z,3.38
2023-03-06T00:42:08.070Z,3.00
2023-03-06T00:44:38.521Z,2.80
2023-03-06T00:47:09.130Z,3.70
2023-03-06T00:49:39.338Z,2.55
2023-03-06T00:52:18.551Z,2.83
2023-03-06T00:54:48.730Z,3.50
2023-03-06T00:57:21.860Z,4.03
2023-03-06T00:59:52.058Z,5.22
2023-03-06T01:02:22.434Z,4.55
2023-03-06T01:04:52.607Z,4.45
2023-03-06T01:07:23.063Z,3.25
2023-03-06T01:09:53.541Z,3.35
2023-03-06T01:12:26.508Z,3.58
2023-03-06T01:14:56.647Z,3.90
2023-03-06T01:17:26.810Z,2.28
2023-03-06T01:19:57.995Z,2.22
2023-03-06T01:22:28.135Z,2.47
2023-03-06T01:24:58.386Z,2.58
2023-03-06T01:27:28.664Z,2.30
2023-03-06T01:29:58.848Z,2.97
2023-03-06T01:32:29.107Z,1.75
2023-03-06T01:34:59.350Z,1.67
2023-03-06T01:37:30.084Z,2.85
2023-03-06T01:40:00.276Z,1.40
2023-03-06T01:42:32.064Z,3.25
2023-03-06T01:45:07.701Z,2.50
2023-03-06T01:47:37.919Z,1.50
2023-03-06T01:50:11.601Z,1.73
2023-03-06T01:52:54.675Z,2.60
2023-03-06T01:55:33.470Z,1.85
2023-03-06T01:58:13.593Z,1.30
2023-03-06T02:03:27.322Z,1.42
2023-03-06T02:05:59.599Z,8.45
2023-03-06T02:08:30.640Z,2.60
2023-03-06T02:11:15.338Z,2.83
2023-03-06T02:13:50.101Z,2.08
2023-03-06T02:16:27.614Z,1.80
2023-03-06T02:19:02.436Z,1.60
2023-03-06T02:21:35.790Z,1.90
2023-03-06T02:24:35.212Z,1.42
2023-03-06T02:27:06.951Z,0.90
2023-03-06T02:29:43.098Z,1.27
2023-03-06T02:32:13.426Z,1.50
2023-03-06T02:34:51.715Z,2.60
2023-03-06T02:37:22.742Z,1.77
2023-03-06T02:40:00.459Z,1.75
2023-03-06T02:42:33.605Z,1.15
2023-03-06T02:45:07.730Z,1.15
2023-03-06T02:47:37.906Z,1.38
2023-03-06T02:50:09.027Z,1.55
2023-03-06T02:52:45.030Z,1.33
2023-03-06T02:55:15.311Z,1.33
2023-03-06T02:57:45.549Z,1.30
2023-03-06T03:00:16.736Z,3.15
2023-03-06T03:02:46.915Z,1.55
2023-03-06T03:05:17.295Z,1.83
2023-03-06T03:07:47.569Z,1.52
2023-03-06T03:10:17.839Z,1.45
2023-03-06T03:12:48.043Z,1.35
2023-03-06T03:15:18.741Z,1.23
2023-03-06T03:17:49.007Z,1.20
2023-03-06T03:20:21.776Z,2.53
2023-03-06T03:22:55.194Z,1.30
2023-03-06T03:25:26.323Z,1.63
2023-03-06T03:27:56.539Z,1.83
2023-03-06T03:30:26.828Z,1.52
2023-03-06T03:32:57.083Z,1.10
2023-03-06T03:35:27.354Z,1.60
2023-03-06T03:37:57.510Z,1.40
2023-03-06T03:40:27.872Z,1.63
2023-03-06T03:42:58.107Z,1.63
2023-03-06T03:45:28.312Z,1.20
2023-03-06T03:47:58.458Z,1.10
2023-03-06T03:50:28.635Z,1.50
2023-03-06T03:53:01.156Z,1.35
2023-03-06T03:55:34.137Z,1.90
2023-03-06T03:58:05.776Z,2.10
2023-03-06T04:00:37.646Z,1.55
2023-03-06T04:03:12.481Z,2.28
2023-03-06T04:05:58.239Z,1.70
2023-03-06T04:08:33.738Z,1.60
2023-03-06T04:11:04.764Z,1.45
2023-03-06T04:13:37.652Z,4.13
2023-03-06T04:16:08.162Z,4.63
2023-03-06T04:18:38.328Z,2.88
2023-03-06T04:21:08.527Z,3.90
2023-03-06T04:23:38.659Z,2.92
2023-03-06T04:26:10.093Z,2.00
2023-03-06T04:28:43.190Z,2.55
2023-03-06T04:31:16.212Z,3.28
2023-03-06T04:33:46.427Z,2.75
2023-03-06T04:36:45.625Z,1.85
2023-03-06T04:39:15.813Z,2.85
2023-03-06T04:41:46.041Z,2.55
2023-03-06T04:44:16.398Z,3.30
2023-03-06T04:46:49.872Z,6.07
2023-03-06T04:49:20.004Z,2.75
2023-03-06T04:51:50.260Z,2.90
2023-03-06T04:54:20.454Z,2.75
2023-03-06T04:56:50.718Z,2.60
2023-03-06T04:59:29.728Z,3.25
2023-03-06T05:02:00.183Z,4.65
2023-03-06T05:04:30.423Z,4.20
2023-03-06T05:07:00.624Z,3.90
2023-03-06T05:09:30.889Z,3.83
2023-03-06T05:12:01.425Z,3.92
2023-03-06T05:14:32.450Z,5.88
2023-03-06T05:17:02.626Z,3.30
2023-03-06T05:19:32.940Z,5.13
2023-03-06T05:22:06.192Z,4.38
2023-03-06T05:24:37.588Z,5.43
2023-03-06T05:27:07.766Z,3.70
2023-03-06T05:29:38.163Z,5.03
2023-03-06T05:32:08.763Z,6.32
2023-03-06T05:34:40.186Z,7.82
2023-03-06T05:37:10.424Z,4.80
2023-03-06T05:39:40.799Z,7.85
2023-03-06T05:42:11.134Z,5.10
2023-03-06T05:44:42.170Z,7.13
2023-03-06T05:47:12.654Z,6.55
2023-03-06T05:49:42.888Z,5.78
2023-03-06T05:52:13.926Z,6.20
2023-03-06T05:54:44.109Z,5.20
2023-03-06T05:57:14.273Z,4.50
2023-03-06T05:59:46.335Z,4.07
2023-03-06T06:02:18.092Z,4.72
2023-03-06T06:04:48.424Z,5.85
2023-03-06T06:07:18.636Z,4.85
2023-03-06T06:09:48.899Z,4.00
2023-03-06T06:12:19.090Z,4.40
2023-03-06T06:14:49.390Z,4.53
2023-03-06T06:17:19.681Z,14.77
2023-03-06T06:19:50.141Z,8.25
2023-03-06T06:22:20.287Z,7.75
2023-03-06T06:24:50.655Z,8.15
2023-03-06T06:27:20.831Z,3.50
2023-03-06T06:29:52.635Z,6.20
2023-03-06T06:32:24.513Z,3.55
2023-03-06T06:34:54.983Z,4.63
2023-03-06T06:37:26.250Z,4.40
2023-03-06T06:39:56.491Z,2.70
2023-03-06T06:42:33.347Z,3.58
2023-03-06T06:45:09.552Z,3.20
2023-03-06T06:47:43.627Z,5.85
2023-03-06T06:50:14.480Z,3.60
2023-03-06T06:52:44.718Z,6.18
2023-03-06T06:55:15.458Z,4.00
2023-03-06T06:57:45.651Z,4.15
2023-03-06T07:00:17.078Z,4.28
2023-03-06T07:02:49.459Z,5.68
2023-03-06T07:05:21.124Z,4.40
2023-03-06T07:07:52.408Z,5.03
2023-03-06T07:10:22.592Z,3.92
2023-03-06T07:12:52.991Z,3.10
2023-03-06T07:15:26.948Z,3.60
2023-03-06T07:17:57.726Z,3.65
2023-03-06T07:20:27.885Z,2.83
2023-03-06T07:22:58.514Z,2.50
2023-03-06T07:25:28.652Z,2.60
2023-03-06T07:27:59.042Z,2.90
2023-03-06T07:30:29.273Z,3.25
2023-03-06T07:33:00.218Z,1.95
2023-03-06T07:35:30.454Z,5.07
2023-03-06T07:38:00.977Z,2.33
2023-03-06T07:40:31.452Z,3.55
2023-03-06T07:43:18.382Z,2.88
2023-03-06T07:45:57.398Z,2.72
2023-03-06T07:48:31.782Z,6.13
2023-03-06T07:51:08.379Z,5.80
2023-03-06T07:53:41.623Z,2.88
2023-03-06T07:56:15.668Z,2.78
2023-03-06T07:58:51.754Z,3.23
2023-03-06T08:01:24.025Z,3.35
2023-03-06T08:03:54.297Z,3.45
2023-03-06T08:06:27.251Z,3.75
2023-03-06T08:08:57.750Z,4.53
2023-03-06T08:11:34.154Z,2.58
2023-03-06T08:14:04.312Z,2.38
2023-03-06T08:16:34.715Z,2.35
2023-03-06T08:19:05.254Z,1.83
2023-03-06T08:21:35.602Z,1.80
2023-03-06T08:24:08.894Z,2.90
2023-03-06T08:26:39.346Z,4.80
2023-03-06T08:29:10.577Z,5.72
2023-03-06T08:31:43.629Z,6.32
2023-03-06T08:34:19.724Z,2.53
2023-03-06T08:36:50.128Z,3.00
2023-03-06T08:39:21.214Z,2.55
2023-03-06T08:41:51.352Z,2.08
2023-03-06T08:44:21.492Z,2.83
2023-03-06T08:46:51.715Z,1.83
2023-03-06T08:49:21.954Z,2.50
2023-03-06T08:51:52.240Z,2.05
2023-03-06T08:54:22.408Z,2.58
2023-03-06T08:56:57.272Z,2.30
2023-03-06T08:59:27.458Z,2.00
2023-03-06T09:01:57.924Z,3.20
2023-03-06T09:04:31.333Z,3.05
2023-03-06T09:07:02.194Z,2.55
2023-03-06T09:09:32.400Z,2.83
2023-03-06T09:12:02.752Z,3.03
2023-03-06T09:14:33.217Z,3.88
2023-03-06T09:17:03.400Z,2.30
2023-03-06T09:19:33.599Z,2.40
2023-03-06T09:22:03.853Z,1.63
2023-03-06T09:24:34.435Z,1.70
2023-03-06T09:27:04.647Z,2.70
2023-03-06T09:29:34.974Z,2.03
2023-03-06T09:32:05.399Z,2.20
2023-03-06T09:34:36.059Z,2.33
2023-03-06T09:37:06.395Z,2.33
2023-03-06T09:39:36.811Z,2.13
2023-03-06T09:42:15.190Z,2.15
2023-03-06T09:44:51.817Z,2.72
2023-03-06T09:47:52.318Z,4.20
2023-03-06T09:50:34.526Z,2.47
2023-03-06T09:53:31.777Z,2.17
2023-03-06T09:56:31.955Z,2.05
2023-03-06T09:59:20.906Z,2.90
2023-03-06T10:02:11.514Z,2.95
2023-03-06T10:04:44.397Z,2.83
2023-03-06T10:07:46.311Z,4.43
2023-03-06T10:10:31.503Z,2.10
2023-03-06T10:13:37.164Z,2.30
2023-03-06T10:16:20.233Z,2.33
2023-03-06T10:18:51.068Z,1.67
2023-03-06T10:21:51.977Z,1.55
2023-03-06T10:24:45.415Z,1.40
2023-03-06T10:27:21.955Z,1.30
2023-03-06T10:30:10.693Z,1.13
2023-03-06T10:33:00.257Z,0.80
2023-03-06T10:35:51.194Z,0.98
2023-03-06T10:38:31.914Z,0.90
2023-03-06T10:41:10.995Z,1.00
2023-03-06T10:43:44.130Z,0.90
2023-03-06T10:46:26.815Z,1.20
2023-03-06T10:49:00.163Z,1.30
2023-03-06T10:51:31.419Z,1.58
2023-03-06T10:54:19.613Z,0.85
2023-03-06T10:56:49.843Z,1.33
2023-03-06T10:59:25.637Z,1.30
2023-03-06T11:02:15.949Z,2.53
2023-03-06T11:04:51.525Z,1.45
2023-03-06T11:07:24.505Z,1.30
2023-03-06T11:09:57.350Z,1.00
2023-03-06T11:12:34.830Z,0.65
2023-03-06T11:15:21.434Z,1.00
2023-03-06T11:20:54.108Z,1.23
2023-03-06T11:23:46.871Z,1.60
2023-03-06T11:26:17.604Z,2.28
2023-03-06T11:29:23.076Z,1.65
2023-03-06T11:32:05.391Z,1.85
2023-03-06T11:34:49.132Z,2.50
2023-03-06T11:37:32.446Z,1.27
2023-03-06T11:40:11.486Z,2.40
2023-03-06T11:42:49.632Z,1.70
2023-03-06T11:45:25.603Z,1.27
2023-03-06T11:47:55.778Z,1.57
2023-03-06T11:50:36.333Z,1.40
2023-03-06T11:53:15.697Z,2.17
2023-03-06T11:56:01.851Z,1.20
2023-03-06T11:58:49.858Z,0.90
2023-03-06T12:01:47.930Z,1.05
2023-03-06T12:04:36.771Z,0.80
2023-03-06T12:07:36.452Z,0.57
2023-03-06T12:10:13.234Z,0.60
2023-03-06T12:13:02.008Z,0.73
2023-03-06T12:15:56.850Z,0.93
2023-03-06T12:18:54.702Z,0.60
2023-03-06T12:21:31.111Z,0.90
2023-03-06T12:24:33.641Z,0.95
2023-03-06T12:27:28.205Z,0.75
2023-03-06T12:30:26.677Z,0.70
2023-03-06T12:33:17.510Z,1.38
2023-03-06T12:35:47.807Z,0.82
2023-03-06T12:38:35.671Z,0.90
2023-03-06T12:41:33.450Z,1.08
2023-03-06T12:44:36.576Z,1.48
2023-03-06T12:47:24.696Z,0.90
2023-03-06T12:50:10.304Z,1.27
2023-03-06T12:52:41.901Z,1.17
2023-03-06T12:55:18.078Z,0.85
2023-03-06T12:57:49.350Z,1.05
2023-03-06T13:01:03.668Z,1.30
2023-03-06T13:04:18.082Z,1.02
2023-03-06T13:06:54.464Z,1.30
2023-03-06T13:10:01.751Z,1.52
2023-03-06T13:12:55.958Z,1.90
2023-03-06T13:15:41.146Z,1.50
2023-03-06T13:18:23.455Z,1.70
2023-03-06T13:21:11.547Z,4.97
2023-03-06T13:23:51.772Z,4.10
2023-03-06T13:26:24.675Z,3.10
2023-03-06T13:28:57.935Z,5.68
2023-03-06T13:31:28.444Z,8.10
2023-03-06T13:34:01.674Z,6.88
2023-03-06T13:36:50.789Z,4.45
2023-03-06T13:39:21.181Z,4.63
2023-03-06T13:41:57.540Z,2.10
2023-03-06T13:44:28.379Z,2.05
2023-03-06T13:47:06.245Z,1.45
2023-03-06T13:49:36.746Z,1.17
2023-03-06T13:52:52.774Z,2.28
2023-03-06T13:55:30.765Z,1.00
2023-03-06T13:58:27.930Z,1.35
2023-03-06T14:01:13.124Z,3.47
2023-03-06T14:04:27.430Z,2.20
2023-03-06T14:07:20.580Z,1.85
2023-03-06T14:10:08.963Z,2.88
2023-03-06T14:12:53.724Z,2.25
2023-03-06T14:15:53.365Z,1.50
2023-03-06T14:18:44.481Z,20.83
2023-03-06T14:21:22.928Z,4.63
2023-03-06T14:24:01.928Z,3.45
2023-03-06T14:26:42.222Z,2.80
2023-03-06T14:29:27.263Z,2.28
2023-03-06T14:31:59.744Z,1.92
2023-03-06T14:34:36.011Z,2.30
2023-03-06T14:37:18.691Z,2.42
2023-03-06T14:39:49.540Z,2.33
2023-03-06T14:42:21.386Z,1.67
2023-03-06T14:45:07.542Z,2.03
2023-03-06T14:47:37.790Z,3.10
2023-03-06T14:50:27.374Z,1.88
2023-03-06T14:53:18.661Z,2.53
2023-03-06T14:55:58.014Z,1.70
2023-03-06T14:58:43.967Z,1.67
2023-03-06T15:01:16.048Z,2.05
2023-03-06T15:03:51.055Z,1.83
2023-03-06T15:06:44.234Z,3.55
2023-03-06T15:09:37.051Z,1.42
2023-03-06T15:12:34.474Z,1.75
2023-03-06T15:15:08.239Z,1.92
2023-03-06T15:17:40.949Z,1.67
2023-03-06T15:21:02.436Z,1.33
2023-03-06T15:23:50.228Z,1.90
2023-03-06T15:26:29.425Z,1.60
2023-03-06T15:29:09.342Z,1.40
2023-03-06T15:31:44.074Z,1.40
2023-03-06T15:34:18.801Z,1.00
2023-03-06T15:36:50.340Z,1.40
2023-03-06T15:39:31.195Z,4.30
2023-03-06T15:42:23.674Z,10.15
2023-03-06T15:44:56.580Z,25.98
2023-03-06T15:47:26.864Z,16.27
2023-03-06T15:49:57.161Z,8.52
2023-03-06T15:52:27.366Z,5.35
2023-03-06T15:54:57.400Z,3.28
2023-03-06T15:57:31.548Z,2.63
2023-03-06T16:00:02.087Z,3.50
2023-03-06T16:02:32.358Z,5.28
2023-03-06T16:05:02.762Z,4.47
2023-03-06T16:07:32.989Z,2.53
2023-03-06T16:10:03.722Z,1.85
2023-03-06T16:12:34.272Z,2.13
2023-03-06T16:15:06.896Z,2.90
2023-03-06T16:17:36.966Z,3.08
2023-03-06T16:20:09.229Z,3.45
2023-03-06T16:22:39.452Z,6.10
2023-03-06T16:25:09.882Z,9.30
2023-03-06T16:27:42.284Z,8.32
2023-03-06T16:30:20.022Z,11.40
2023-03-06T16:32:50.341Z,7.65
2023-03-06T16:35:21.265Z,11.25
2023-03-06T16:37:51.679Z,6.85
2023-03-06T16:40:47.825Z,4.82
2023-03-06T16:43:17.988Z,4.18
2023-03-06T16:45:48.161Z,3.28
2023-03-06T16:48:18.488Z,4.10
2023-03-06T16:50:48.631Z,5.82
2023-03-06T16:53:18.924Z,6.80
2023-03-06T16:55:49.525Z,6.68
2023-03-06T16:58:20.063Z,9.77
2023-03-06T17:00:50.182Z,8.02
2023-03-06T17:03:20.341Z,13.10
2023-03-06T17:05:50.565Z,10.90
2023-03-06T17:08:20.719Z,11.68
2023-03-06T17:10:50.862Z,12.38
2023-03-06T17:13:21.180Z,11.65
2023-03-06T17:15:59.493Z,13.52
2023-03-06T17:18:30.317Z,12.82
2023-03-06T17:21:00.610Z,10.65
2023-03-06T17:23:31.031Z,10.43
2023-03-06T17:26:07.250Z,12.95
2023-03-06T17:28:38.254Z,9.63
2023-03-06T17:31:17.483Z,11.05
2023-03-06T17:33:49.534Z,11.15
2023-03-06T17:36:21.058Z,16.00
2023-03-06T17:38:55.578Z,14.68
2023-03-06T17:41:27.019Z,13.63
2023-03-06T17:44:00.464Z,13.60
2023-03-06T17:46:35.471Z,13.13
2023-03-06T17:49:06.580Z,14.13
2023-03-06T17:51:39.196Z,14.27
2023-03-06T17:54:09.446Z,15.57
2023-03-06T17:56:39.765Z,20.50
2023-03-06T17:59:10.101Z,28.13
2023-03-06T18:01:40.839Z,25.27
2023-03-06T18:04:12.081Z,23.00
2023-03-06T18:06:42.270Z,37.88
2023-03-06T18:09:14.532Z,26.00
2023-03-06T18:11:45.055Z,22.50
2023-03-06T18:14:15.581Z,20.80
2023-03-06T18:16:47.648Z,19.75
2023-03-06T18:19:17.958Z,27.55
2023-03-06T18:21:52.350Z,27.50
2023-03-06T18:24:27.482Z,22.80
2023-03-06T18:26:57.700Z,19.55
2023-03-06T18:29:27.909Z,28.83
2023-03-06T18:31:59.529Z,23.90
2023-03-06T18:34:29.642Z,30.85
2023-03-06T18:36:59.797Z,35.67
2023-03-06T18:39:29.996Z,29.08
2023-03-06T18:42:00.174Z,28.98
2023-03-06T18:44:33.215Z,26.10
2023-03-06T18:47:03.974Z,35.45
2023-03-06T18:49:34.109Z,29.35
2023-03-06T18:52:04.492Z,25.85
2023-03-06T18:54:34.663Z,22.55
2023-03-06T18:57:05.046Z,22.67
2023-03-06T18:59:35.183Z,24.17
2023-03-06T19:02:05.374Z,20.23
2023-03-06T19:04:36.675Z,17.55
2023-03-06T19:07:06.963Z,17.30
2023-03-06T19:09:37.166Z,18.90
2023-03-06T19:12:07.568Z,20.38
2023-03-06T19:14:38.381Z,21.98
2023-03-06T19:17:08.669Z,17.40
2023-03-06T19:19:38.877Z,15.80
2023-03-06T19:22:09.059Z,13.77
2023-03-06T19:24:39.134Z,20.67
2023-03-06T19:27:11.632Z,13.40
2023-03-06T19:29:42.509Z,16.70
2023-03-06T19:32:12.810Z,19.23
2023-03-06T19:34:43.383Z,37.00
2023-03-06T19:37:13.563Z,31.80
2023-03-06T19:39:43.895Z,25.75
2023-03-06T19:42:14.050Z,23.95
2023-03-06T19:44:44.441Z,23.67
2023-03-06T19:47:14.508Z,17.90
2023-03-06T19:49:44.699Z,22.55
2023-03-06T19:52:14.995Z,17.90
2023-03-06T19:54:47.230Z,16.20
2023-03-06T19:57:18.076Z,22.10
2023-03-06T19:59:51.996Z,15.63
2023-03-06T20:02:26.697Z,13.88
2023-03-06T20:04:56.999Z,11.35
2023-03-06T20:07:27.215Z,10.20
2023-03-06T20:10:00.880Z,8.73
2023-03-06T20:12:32.826Z,9.43
2023-03-06T20:15:03.823Z,11.60
2023-03-06T20:17:34.885Z,10.45
2023-03-06T20:20:05.621Z,12.70
2023-03-06T20:22:35.843Z,11.05
2023-03-06T20:25:06.601Z,13.20
2023-03-06T20:27:36.953Z,11.35
2023-03-06T20:30:08.174Z,11.88
2023-03-06T20:32:40.122Z,11.80
2023-03-06T20:35:10.346Z,16.75
2023-03-06T20:37:43.101Z,15.70
2023-03-06T20:40:15.871Z,28.77
2023-03-06T20:42:46.060Z,29.00
2023-03-06T20:45:16.255Z,28.42
2023-03-06T20:47:47.324Z,24.63
2023-03-06T20:50:17.793Z,24.00
2023-03-06T20:52:59.699Z,21.60
2023-03-06T20:55:37.844Z,21.65
2023-03-06T20:58:08.406Z,19.10
2023-03-06T21:00:41.613Z,18.05
2023-03-06T21:03:24.307Z,17.20
2023-03-06T21:05:54.469Z,23.70
2023-03-06T21:08:24.848Z,27.02
2023-03-06T21:10:55.224Z,25.17
2023-03-06T21:13:25.447Z,25.30
2023-03-06T21:15:55.706Z,17.85
2023-03-06T21:18:25.872Z,19.30
2023-03-06T21:20:56.085Z,20.02
2023-03-06T21:23:26.326Z,28.00
2023-03-06T21:25:56.615Z,21.20
2023-03-06T21:28:27.024Z,20.85
2023-03-06T21:31:00.274Z,21.38
2023-03-06T21:33:30.520Z,18.88
2023-03-06T21:36:01.001Z,22.90
2023-03-06T21:38:31.225Z,25.88
2023-03-06T21:41:10.572Z,28.90
2023-03-06T21:43:41.412Z,26.52
2023-03-06T21:46:12.243Z,26.20
2023-03-06T21:48:42.510Z,18.45
2023-03-06T21:51:15.984Z,23.15
2023-03-06T21:53:47.810Z,24.73
2023-03-06T21:56:20.588Z,27.83
2023-03-06T21:58:58.213Z,31.42
2023-03-06T22:01:37.050Z,27.40
2023-03-06T22:04:07.377Z,26.98
2023-03-06T22:06:38.514Z,23.73
2023-03-06T22:09:10.060Z,21.77
2023-03-06T22:11:40.245Z,22.80
2023-03-06T22:14:10.465Z,22.85
2023-03-06T22:16:41.144Z,18.10
2023-03-06T22:19:11.348Z,19.00
2023-03-06T22:21:41.471Z,25.08
2023-03-06T22:24:11.666Z,18.80
2023-03-06T22:26:41.853Z,21.30
2023-03-06T22:29:15.041Z,18.83
2023-03-06T22:31:45.325Z,19.90
2023-03-06T22:34:15.715Z,20.00
2023-03-06T22:36:48.543Z,20.08
2023-03-06T22:39:18.929Z,17.58
2023-03-06T22:41:51.968Z,19.02
2023-03-06T22:44:23.293Z,15.20
2023-03-06T22:46:53.704Z,18.00
2023-03-06T22:49:29.349Z,17.35
2023-03-06T22:52:05.694Z,19.25
2023-03-06T22:54:35.986Z,26.40
2023-03-06T22:57:06.282Z,27.67
2023-03-06T22:59:36.474Z,35.92
2023-03-06T23:02:29.394Z,38.72
2023-03-06T23:05:02.146Z,30.55
2023-03-06T23:07:40.717Z,27.27
2023-03-06T23:10:11.481Z,31.88
2023-03-06T23:12:41.981Z,24.92
2023-03-06T23:15:12.270Z,41.70
2023-03-06T23:17:48.130Z,29.52
2023-03-06T23:20:18.523Z,46.78
2023-03-06T23:23:21.861Z,26.75
2023-03-06T23:26:02.483Z,22.20
2023-03-06T23:28:33.051Z,23.05
2023-03-06T23:31:28.135Z,19.17
2023-03-06T23:34:06.787Z,15.85
2023-03-06T23:36:49.090Z,21.35
2023-03-06T23:39:19.356Z,25.25
2023-03-06T23:41:58.476Z,21.63
2023-03-06T23:44:32.618Z,16.88
2023-03-06T23:47:02.724Z,15.35
2023-03-06T23:49:44.436Z,12.85
2023-03-06T23:52:14.581Z,10.98
2023-03-06T23:54:50.592Z,10.35
2023-03-06T23:57:20.757Z,12.60
2023-03-06T23:59:51.102Z,12.18
